sensor_id;sensor_type;location;lat;lon;timestamp;P1;durP1;ratioP1;P2;durP2;ratioP2
51556;SDS011;38766;53.194;5.532;2023-05-20T00:00:47;12.98;;;6.28;;
51556;SDS011;38766;53.194;5.532;2023-05-20T00:03:13;14.52;;;5.43;;
51556;SDS011;38766;53.194;5.532;2023-05-20T00:05:42;13.23;;;4.82;;
51556;SDS011;38766;53.194;5.532;2023-05-20T00:08:08;9.80;;;5.18;;
51556;SDS011;38766;53.194;5.532;2023-05-20T00:10:35;9.55;;;5.05;;
51556;SDS011;38766;53.194;5.532;2023-05-20T00:13:00;8.65;;;5.18;;
51556;SDS011;38766;53.194;5.532;2023-05-20T00:15:27;13.52;;;4.95;;
51556;SDS011;38766;53.194;5.532;2023-05-20T00:17:53;12.90;;;5.95;;
51556;SDS011;38766;53.194;5.532;2023-05-20T00:20:19;12.25;;;5.03;;
51556;SDS011;38766;53.194;5.532;2023-05-20T00:22:44;11.70;;;4.72;;
51556;SDS011;38766;53.194;5.532;2023-05-20T00:25:10;12.98;;;5.20;;
51556;SDS011;38766;53.194;5.532;2023-05-20T00:27:38;18.02;;;5.95;;
51556;SDS011;38766;53.194;5.532;2023-05-20T00:30:05;15.45;;;5.40;;
51556;SDS011;38766;53.194;5.532;2023-05-20T00:32:32;12.88;;;5.60;;
51556;SDS011;38766;53.194;5.532;2023-05-20T00:34:58;12.95;;;4.85;;
51556;SDS011;38766;53.194;5.532;2023-05-20T00:37:25;12.95;;;5.53;;
51556;SDS011;38766;53.194;5.532;2023-05-20T00:39:51;13.15;;;5.00;;
51556;SDS011;38766;53.194;5.532;2023-05-20T00:42:20;16.13;;;5.60;;
51556;SDS011;38766;53.194;5.532;2023-05-20T00:44:47;17.33;;;5.50;;
51556;SDS011;38766;53.194;5.532;2023-05-20T00:47:19;14.38;;;4.88;;
51556;SDS011;38766;53.194;5.532;2023-05-20T00:49:50;13.63;;;5.40;;
51556;SDS011;38766;53.194;5.532;2023-05-20T00:52:16;10.20;;;4.60;;
51556;SDS011;38766;53.194;5.532;2023-05-20T00:54:42;14.52;;;5.53;;
51556;SDS011;38766;53.194;5.532;2023-05-20T00:57:09;17.55;;;5.78;;
51556;SDS011;38766;53.194;5.532;2023-05-20T00:59:35;12.65;;;5.07;;
51556;SDS011;38766;53.194;5.532;2023-05-20T01:02:05;12.93;;;4.88;;
51556;SDS011;38766;53.194;5.532;2023-05-20T01:04:31;13.07;;;5.28;;
51556;SDS011;38766;53.194;5.532;2023-05-20T01:06:57;11.18;;;5.38;;
51556;SDS011;38766;53.194;5.532;2023-05-20T01:09:26;14.40;;;5.70;;
51556;SDS011;38766;53.194;5.532;2023-05-20T01:11:58;13.55;;;5.68;;
51556;SDS011;38766;53.194;5.532;2023-05-20T01:14:31;10.52;;;5.43;;
51556;SDS011;38766;53.194;5.532;2023-05-20T01:17:07;14.55;;;6.10;;
51556;SDS011;38766;53.194;5.532;2023-05-20T01:19:42;18.70;;;5.68;;
51556;SDS011;38766;53.194;5.532;2023-05-20T01:22:10;10.93;;;5.80;;
51556;SDS011;38766;53.194;5.532;2023-05-20T01:24:55;16.52;;;5.50;;
51556;SDS011;38766;53.194;5.532;2023-05-20T01:27:21;10.18;;;5.70;;
51556;SDS011;38766;53.194;5.532;2023-05-20T01:29:48;16.52;;;5.78;;
51556;SDS011;38766;53.194;5.532;2023-05-20T01:32:18;14.15;;;5.95;;
51556;SDS011;38766;53.194;5.532;2023-05-20T01:35:00;13.35;;;6.20;;
51556;SDS011;38766;53.194;5.532;2023-05-20T01:37:28;13.23;;;6.03;;
51556;SDS011;38766;53.194;5.532;2023-05-20T01:39:55;11.52;;;5.80;;
51556;SDS011;38766;53.194;5.532;2023-05-20T01:42:22;16.55;;;5.82;;
51556;SDS011;38766;53.194;5.532;2023-05-20T01:44:51;14.65;;;6.60;;
51556;SDS011;38766;53.194;5.532;2023-05-20T01:47:16;14.50;;;6.30;;
51556;SDS011;38766;53.194;5.532;2023-05-20T01:49:42;14.02;;;6.20;;
51556;SDS011;38766;53.194;5.532;2023-05-20T01:52:10;14.18;;;6.38;;
51556;SDS011;38766;53.194;5.532;2023-05-20T01:54:36;13.00;;;5.65;;
51556;SDS011;38766;53.194;5.532;2023-05-20T01:57:02;18.48;;;7.05;;
51556;SDS011;38766;53.194;5.532;2023-05-20T01:59:27;11.55;;;5.90;;
51556;SDS011;38766;53.194;5.532;2023-05-20T02:01:56;12.02;;;6.50;;
51556;SDS011;38766;53.194;5.532;2023-05-20T02:04:22;12.18;;;6.38;;
51556;SDS011;38766;53.194;5.532;2023-05-20T02:06:47;18.70;;;6.90;;
51556;SDS011;38766;53.194;5.532;2023-05-20T02:09:13;12.02;;;6.97;;
51556;SDS011;38766;53.194;5.532;2023-05-20T02:11:39;14.43;;;6.60;;
51556;SDS011;38766;53.194;5.532;2023-05-20T02:14:04;14.52;;;6.88;;
51556;SDS011;38766;53.194;5.532;2023-05-20T02:16:30;21.67;;;7.30;;
51556;SDS011;38766;53.194;5.532;2023-05-20T02:18:56;14.85;;;7.10;;
51556;SDS011;38766;53.194;5.532;2023-05-20T02:21:22;11.57;;;5.97;;
51556;SDS011;38766;53.194;5.532;2023-05-20T02:23:49;15.73;;;7.93;;
51556;SDS011;38766;53.194;5.532;2023-05-20T02:26:15;15.75;;;6.35;;
51556;SDS011;38766;53.194;5.532;2023-05-20T02:28:41;20.70;;;6.97;;
51556;SDS011;38766;53.194;5.532;2023-05-20T02:31:10;17.42;;;6.38;;
51556;SDS011;38766;53.194;5.532;2023-05-20T02:33:36;15.45;;;7.05;;
51556;SDS011;38766;53.194;5.532;2023-05-20T02:36:02;14.73;;;6.57;;
51556;SDS011;38766;53.194;5.532;2023-05-20T02:38:28;13.63;;;6.53;;
51556;SDS011;38766;53.194;5.532;2023-05-20T02:40:56;13.90;;;6.30;;
51556;SDS011;38766;53.194;5.532;2023-05-20T02:43:23;18.15;;;6.93;;
51556;SDS011;38766;53.194;5.532;2023-05-20T02:45:49;17.35;;;6.53;;
51556;SDS011;38766;53.194;5.532;2023-05-20T02:48:15;15.10;;;6.65;;
51556;SDS011;38766;53.194;5.532;2023-05-20T02:50:41;16.52;;;6.53;;
51556;SDS011;38766;53.194;5.532;2023-05-20T02:53:06;13.73;;;6.93;;
51556;SDS011;38766;53.194;5.532;2023-05-20T02:55:33;17.20;;;6.75;;
51556;SDS011;38766;53.194;5.532;2023-05-20T02:57:59;20.38;;;7.55;;
51556;SDS011;38766;53.194;5.532;2023-05-20T03:00:25;12.80;;;6.30;;
51556;SDS011;38766;53.194;5.532;2023-05-20T03:02:54;18.67;;;7.10;;
51556;SDS011;38766;53.194;5.532;2023-05-20T03:05:20;15.63;;;7.05;;
51556;SDS011;38766;53.194;5.532;2023-05-20T03:07:46;27.08;;;7.38;;
51556;SDS011;38766;53.194;5.532;2023-05-20T03:10:12;16.60;;;7.40;;
51556;SDS011;38766;53.194;5.532;2023-05-20T03:12:38;13.98;;;7.28;;
51556;SDS011;38766;53.194;5.532;2023-05-20T03:15:05;15.63;;;7.43;;
51556;SDS011;38766;53.194;5.532;2023-05-20T03:17:31;17.83;;;7.47;;
51556;SDS011;38766;53.194;5.532;2023-05-20T03:19:56;15.85;;;7.03;;
51556;SDS011;38766;53.194;5.532;2023-05-20T03:22:22;15.70;;;7.70;;
51556;SDS011;38766;53.194;5.532;2023-05-20T03:24:47;15.98;;;7.50;;
51556;SDS011;38766;53.194;5.532;2023-05-20T03:27:13;18.88;;;7.57;;
51556;SDS011;38766;53.194;5.532;2023-05-20T03:29:39;18.33;;;7.68;;
51556;SDS011;38766;53.194;5.532;2023-05-20T03:32:05;15.57;;;7.25;;
51556;SDS011;38766;53.194;5.532;2023-05-20T03:34:31;15.52;;;7.10;;
51556;SDS011;38766;53.194;5.532;2023-05-20T03:36:56;12.80;;;7.18;;
51556;SDS011;38766;53.194;5.532;2023-05-20T03:39:24;20.48;;;7.47;;
51556;SDS011;38766;53.194;5.532;2023-05-20T03:41:49;14.95;;;7.50;;
51556;SDS011;38766;53.194;5.532;2023-05-20T03:44:15;13.95;;;7.47;;
51556;SDS011;38766;53.194;5.532;2023-05-20T03:46:41;20.70;;;8.15;;
51556;SDS011;38766;53.194;5.532;2023-05-20T03:49:07;17.73;;;8.10;;
51556;SDS011;38766;53.194;5.532;2023-05-20T03:51:32;17.77;;;7.60;;
51556;SDS011;38766;53.194;5.532;2023-05-20T03:53:58;17.13;;;7.38;;
51556;SDS011;38766;53.194;5.532;2023-05-20T03:56:24;16.77;;;8.10;;
51556;SDS011;38766;53.194;5.532;2023-05-20T03:58:50;16.38;;;7.70;;
51556;SDS011;38766;53.194;5.532;2023-05-20T04:01:16;17.73;;;7.78;;
51556;SDS011;38766;53.194;5.532;2023-05-20T04:03:42;13.93;;;7.28;;
51556;SDS011;38766;53.194;5.532;2023-05-20T04:06:08;12.52;;;6.75;;
51556;SDS011;38766;53.194;5.532;2023-05-20T04:08:33;11.02;;;6.57;;
51556;SDS011;38766;53.194;5.532;2023-05-20T04:11:02;14.45;;;6.60;;
51556;SDS011;38766;53.194;5.532;2023-05-20T04:13:28;12.90;;;6.50;;
51556;SDS011;38766;53.194;5.532;2023-05-20T04:15:53;15.73;;;7.22;;
51556;SDS011;38766;53.194;5.532;2023-05-20T04:18:19;11.00;;;6.40;;
51556;SDS011;38766;53.194;5.532;2023-05-20T04:20:45;16.25;;;6.65;;
51556;SDS011;38766;53.194;5.532;2023-05-20T04:23:11;15.07;;;6.95;;
51556;SDS011;38766;53.194;5.532;2023-05-20T04:25:37;15.70;;;6.55;;
51556;SDS011;38766;53.194;5.532;2023-05-20T04:28:02;13.45;;;5.88;;
51556;SDS011;38766;53.194;5.532;2023-05-20T04:30:28;13.95;;;5.97;;
51556;SDS011;38766;53.194;5.532;2023-05-20T04:32:57;11.80;;;5.90;;
51556;SDS011;38766;53.194;5.532;2023-05-20T04:35:26;16.67;;;6.07;;
51556;SDS011;38766;53.194;5.532;2023-05-20T04:37:53;13.95;;;6.20;;
51556;SDS011;38766;53.194;5.532;2023-05-20T04:40:19;12.77;;;5.97;;
51556;SDS011;38766;53.194;5.532;2023-05-20T04:42:46;15.15;;;6.25;;
51556;SDS011;38766;53.194;5.532;2023-05-20T04:45:11;8.48;;;5.70;;
51556;SDS011;38766;53.194;5.532;2023-05-20T04:47:37;12.77;;;6.25;;
51556;SDS011;38766;53.194;5.532;2023-05-20T04:50:10;13.45;;;5.90;;
51556;SDS011;38766;53.194;5.532;2023-05-20T04:52:36;15.10;;;5.72;;
51556;SDS011;38766;53.194;5.532;2023-05-20T04:55:03;9.50;;;5.22;;
51556;SDS011;38766;53.194;5.532;2023-05-20T04:57:36;12.48;;;5.43;;
51556;SDS011;38766;53.194;5.532;2023-05-20T05:00:06;10.40;;;5.65;;
51556;SDS011;38766;53.194;5.532;2023-05-20T05:02:34;19.15;;;5.80;;
51556;SDS011;38766;53.194;5.532;2023-05-20T05:04:59;9.95;;;5.15;;
51556;SDS011;38766;53.194;5.532;2023-05-20T05:07:25;16.63;;;5.38;;
51556;SDS011;38766;53.194;5.532;2023-05-20T05:09:51;10.43;;;5.70;;
51556;SDS011;38766;53.194;5.532;2023-05-20T05:12:16;11.20;;;4.82;;
51556;SDS011;38766;53.194;5.532;2023-05-20T05:14:42;10.23;;;5.32;;
51556;SDS011;38766;53.194;5.532;2023-05-20T05:17:08;9.52;;;5.35;;
51556;SDS011;38766;53.194;5.532;2023-05-20T05:19:33;10.02;;;4.32;;
51556;SDS011;38766;53.194;5.532;2023-05-20T05:21:59;10.23;;;4.82;;
51556;SDS011;38766;53.194;5.532;2023-05-20T05:24:25;10.80;;;4.85;;
51556;SDS011;38766;53.194;5.532;2023-05-20T05:26:53;10.52;;;4.90;;
51556;SDS011;38766;53.194;5.532;2023-05-20T05:29:20;8.77;;;4.75;;
51556;SDS011;38766;53.194;5.532;2023-05-20T05:31:45;9.07;;;4.47;;
51556;SDS011;38766;53.194;5.532;2023-05-20T05:34:11;8.60;;;4.30;;
51556;SDS011;38766;53.194;5.532;2023-05-20T05:36:38;6.20;;;4.75;;
51556;SDS011;38766;53.194;5.532;2023-05-20T05:39:04;7.82;;;4.57;;
51556;SDS011;38766;53.194;5.532;2023-05-20T05:41:30;8.68;;;4.28;;
51556;SDS011;38766;53.194;5.532;2023-05-20T05:43:57;9.27;;;4.50;;
51556;SDS011;38766;53.194;5.532;2023-05-20T05:46:23;9.68;;;4.47;;
51556;SDS011;38766;53.194;5.532;2023-05-20T05:48:49;13.13;;;4.63;;
51556;SDS011;38766;53.194;5.532;2023-05-20T05:51:15;5.82;;;4.03;;
51556;SDS011;38766;53.194;5.532;2023-05-20T05:53:41;9.18;;;3.78;;
51556;SDS011;38766;53.194;5.532;2023-05-20T05:56:07;4.40;;;3.35;;
51556;SDS011;38766;53.194;5.532;2023-05-20T05:58:33;6.57;;;3.83;;
51556;SDS011;38766;53.194;5.532;2023-05-20T06:00:59;7.72;;;3.60;;
51556;SDS011;38766;53.194;5.532;2023-05-20T06:03:24;7.13;;;3.70;;
51556;SDS011;38766;53.194;5.532;2023-05-20T06:05:50;5.10;;;3.30;;
51556;SDS011;38766;53.194;5.532;2023-05-20T06:08:16;6.10;;;3.25;;
51556;SDS011;38766;53.194;5.532;2023-05-20T06:10:46;7.03;;;2.92;;
51556;SDS011;38766;53.194;5.532;2023-05-20T06:13:13;7.82;;;2.72;;
51556;SDS011;38766;53.194;5.532;2023-05-20T06:15:38;6.10;;;3.20;;
51556;SDS011;38766;53.194;5.532;2023-05-20T06:18:05;4.18;;;2.50;;
51556;SDS011;38766;53.194;5.532;2023-05-20T06:20:30;4.55;;;2.88;;
51556;SDS011;38766;53.194;5.532;2023-05-20T06:22:56;6.55;;;2.30;;
51556;SDS011;38766;53.194;5.532;2023-05-20T06:25:21;5.47;;;2.40;;
51556;SDS011;38766;53.194;5.532;2023-05-20T06:27:47;6.80;;;2.78;;
51556;SDS011;38766;53.194;5.532;2023-05-20T06:30:13;3.17;;;2.35;;
51556;SDS011;38766;53.194;5.532;2023-05-20T06:32:39;2.85;;;2.40;;
51556;SDS011;38766;53.194;5.532;2023-05-20T06:35:05;2.53;;;2.25;;
51556;SDS011;38766;53.194;5.532;2023-05-20T06:37:31;5.13;;;2.60;;
51556;SDS011;38766;53.194;5.532;2023-05-20T06:39:56;4.63;;;2.20;;
51556;SDS011;38766;53.194;5.532;2023-05-20T06:42:22;5.78;;;2.47;;
51556;SDS011;38766;53.194;5.532;2023-05-20T06:44:48;4.85;;;2.50;;
51556;SDS011;38766;53.194;5.532;2023-05-20T06:47:14;3.92;;;2.20;;
51556;SDS011;38766;53.194;5.532;2023-05-20T06:49:44;9.18;;;2.65;;
51556;SDS011;38766;53.194;5.532;2023-05-20T06:52:10;2.90;;;1.95;;
51556;SDS011;38766;53.194;5.532;2023-05-20T06:54:38;4.07;;;2.17;;
51556;SDS011;38766;53.194;5.532;2023-05-20T06:57:08;3.55;;;2.00;;
51556;SDS011;38766;53.194;5.532;2023-05-20T06:59:37;3.75;;;2.28;;
51556;SDS011;38766;53.194;5.532;2023-05-20T07:02:03;3.67;;;2.40;;
51556;SDS011;38766;53.194;5.532;2023-05-20T07:04:29;4.28;;;2.20;;
51556;SDS011;38766;53.194;5.532;2023-05-20T07:06:55;5.40;;;2.38;;
51556;SDS011;38766;53.194;5.532;2023-05-20T07:09:20;5.32;;;2.10;;
51556;SDS011;38766;53.194;5.532;2023-05-20T07:11:46;4.05;;;2.13;;
51556;SDS011;38766;53.194;5.532;2023-05-20T07:14:12;2.20;;;2.00;;
51556;SDS011;38766;53.194;5.532;2023-05-20T07:16:38;4.70;;;1.95;;
51556;SDS011;38766;53.194;5.532;2023-05-20T07:19:03;5.70;;;2.45;;
51556;SDS011;38766;53.194;5.532;2023-05-20T07:21:29;3.08;;;1.75;;
51556;SDS011;38766;53.194;5.532;2023-05-20T07:23:55;2.58;;;1.58;;
51556;SDS011;38766;53.194;5.532;2023-05-20T07:26:20;3.83;;;1.90;;
51556;SDS011;38766;53.194;5.532;2023-05-20T07:28:46;5.47;;;2.13;;
51556;SDS011;38766;53.194;5.532;2023-05-20T07:31:12;4.15;;;2.00;;
51556;SDS011;38766;53.194;5.532;2023-05-20T07:33:38;3.80;;;1.88;;
51556;SDS011;38766;53.194;5.532;2023-05-20T07:36:04;4.50;;;1.88;;
51556;SDS011;38766;53.194;5.532;2023-05-20T07:38:30;6.53;;;2.50;;
51556;SDS011;38766;53.194;5.532;2023-05-20T07:40:56;5.03;;;1.85;;
51556;SDS011;38766;53.194;5.532;2023-05-20T07:43:22;3.90;;;2.10;;
51556;SDS011;38766;53.194;5.532;2023-05-20T07:45:48;4.13;;;1.98;;
51556;SDS011;38766;53.194;5.532;2023-05-20T07:48:13;4.65;;;2.10;;
51556;SDS011;38766;53.194;5.532;2023-05-20T07:50:39;4.35;;;2.05;;
51556;SDS011;38766;53.194;5.532;2023-05-20T07:53:05;3.42;;;1.92;;
51556;SDS011;38766;53.194;5.532;2023-05-20T07:55:34;3.78;;;2.15;;
51556;SDS011;38766;53.194;5.532;2023-05-20T07:58:03;6.10;;;2.20;;
51556;SDS011;38766;53.194;5.532;2023-05-20T08:00:29;3.83;;;2.10;;
51556;SDS011;38766;53.194;5.532;2023-05-20T08:02:55;4.88;;;2.13;;
51556;SDS011;38766;53.194;5.532;2023-05-20T08:05:21;2.42;;;1.80;;
51556;SDS011;38766;53.194;5.532;2023-05-20T08:07:47;4.75;;;1.88;;
51556;SDS011;38766;53.194;5.532;2023-05-20T08:10:13;6.03;;;2.00;;
51556;SDS011;38766;53.194;5.532;2023-05-20T08:12:38;2.33;;;1.80;;
51556;SDS011;38766;53.194;5.532;2023-05-20T08:15:05;6.30;;;1.73;;
51556;SDS011;38766;53.194;5.532;2023-05-20T08:17:31;3.33;;;1.88;;
51556;SDS011;38766;53.194;5.532;2023-05-20T08:19:58;4.75;;;1.85;;
51556;SDS011;38766;53.194;5.532;2023-05-20T08:22:23;5.93;;;1.90;;
51556;SDS011;38766;53.194;5.532;2023-05-20T08:24:49;6.03;;;2.00;;
51556;SDS011;38766;53.194;5.532;2023-05-20T08:27:15;2.75;;;1.80;;
51556;SDS011;38766;53.194;5.532;2023-05-20T08:29:43;6.32;;;2.03;;
51556;SDS011;38766;53.194;5.532;2023-05-20T08:32:09;4.43;;;1.95;;
51556;SDS011;38766;53.194;5.532;2023-05-20T08:34:35;2.00;;;1.70;;
51556;SDS011;38766;53.194;5.532;2023-05-20T08:37:01;3.08;;;1.63;;
51556;SDS011;38766;53.194;5.532;2023-05-20T08:39:27;4.75;;;2.00;;
51556;SDS011;38766;53.194;5.532;2023-05-20T08:41:52;7.90;;;2.95;;
51556;SDS011;38766;53.194;5.532;2023-05-20T08:44:18;3.75;;;1.77;;
51556;SDS011;38766;53.194;5.532;2023-05-20T08:46:46;5.72;;;2.55;;
51556;SDS011;38766;53.194;5.532;2023-05-20T08:49:13;2.65;;;2.28;;
51556;SDS011;38766;53.194;5.532;2023-05-20T08:51:39;5.82;;;1.83;;
51556;SDS011;38766;53.194;5.532;2023-05-20T08:54:06;5.22;;;1.77;;
51556;SDS011;38766;53.194;5.532;2023-05-20T08:56:33;7.07;;;1.75;;
51556;SDS011;38766;53.194;5.532;2023-05-20T08:59:00;2.70;;;1.73;;
51556;SDS011;38766;53.194;5.532;2023-05-20T09:01:28;4.18;;;1.70;;
51556;SDS011;38766;53.194;5.532;2023-05-20T09:03:53;3.95;;;1.67;;
51556;SDS011;38766;53.194;5.532;2023-05-20T09:06:19;4.50;;;1.50;;
51556;SDS011;38766;53.194;5.532;2023-05-20T09:08:47;8.18;;;2.00;;
51556;SDS011;38766;53.194;5.532;2023-05-20T09:11:15;4.03;;;1.60;;
51556;SDS011;38766;53.194;5.532;2023-05-20T09:13:41;6.28;;;1.60;;
51556;SDS011;38766;53.194;5.532;2023-05-20T09:16:08;6.55;;;1.70;;
51556;SDS011;38766;53.194;5.532;2023-05-20T09:18:37;7.18;;;1.73;;
51556;SDS011;38766;53.194;5.532;2023-05-20T09:21:04;3.03;;;1.80;;
51556;SDS011;38766;53.194;5.532;2023-05-20T09:23:30;3.13;;;1.60;;
51556;SDS011;38766;53.194;5.532;2023-05-20T09:25:59;7.20;;;1.67;;
51556;SDS011;38766;53.194;5.532;2023-05-20T09:28:28;4.28;;;1.80;;
51556;SDS011;38766;53.194;5.532;2023-05-20T09:30:57;3.17;;;1.70;;
51556;SDS011;38766;53.194;5.532;2023-05-20T09:33:26;4.53;;;1.42;;
51556;SDS011;38766;53.194;5.532;2023-05-20T09:36:08;4.32;;;2.35;;
51556;SDS011;38766;53.194;5.532;2023-05-20T09:38:38;3.08;;;1.60;;
51556;SDS011;38766;53.194;5.532;2023-05-20T09:41:05;3.83;;;1.70;;
51556;SDS011;38766;53.194;5.532;2023-05-20T09:43:33;2.50;;;1.73;;
51556;SDS011;38766;53.194;5.532;2023-05-20T09:46:00;4.82;;;1.75;;
51556;SDS011;38766;53.194;5.532;2023-05-20T09:48:28;6.43;;;2.10;;
51556;SDS011;38766;53.194;5.532;2023-05-20T09:50:55;5.93;;;2.05;;
51556;SDS011;38766;53.194;5.532;2023-05-20T09:53:22;3.85;;;1.90;;
51556;SDS011;38766;53.194;5.532;2023-05-20T09:55:51;3.88;;;1.83;;
51556;SDS011;38766;53.194;5.532;2023-05-20T09:58:18;5.88;;;2.20;;
51556;SDS011;38766;53.194;5.532;2023-05-20T10:00:44;4.55;;;2.00;;
51556;SDS011;38766;53.194;5.532;2023-05-20T10:03:10;7.25;;;2.33;;
51556;SDS011;38766;53.194;5.532;2023-05-20T10:05:40;6.05;;;1.95;;
51556;SDS011;38766;53.194;5.532;2023-05-20T10:08:31;5.40;;;2.10;;
51556;SDS011;38766;53.194;5.532;2023-05-20T10:24:32;4.28;;;1.80;;
51556;SDS011;38766;53.194;5.532;2023-05-20T10:27:06;5.45;;;1.90;;
51556;SDS011;38766;53.194;5.532;2023-05-20T10:29:43;2.88;;;1.75;;
51556;SDS011;38766;53.194;5.532;2023-05-20T10:32:28;4.85;;;1.85;;
51556;SDS011;38766;53.194;5.532;2023-05-20T10:34:59;6.95;;;2.10;;
51556;SDS011;38766;53.194;5.532;2023-05-20T10:37:31;5.57;;;1.77;;
51556;SDS011;38766;53.194;5.532;2023-05-20T10:40:04;7.47;;;2.47;;
51556;SDS011;38766;53.194;5.532;2023-05-20T10:42:31;6.22;;;2.10;;
51556;SDS011;38766;53.194;5.532;2023-05-20T10:44:57;8.95;;;2.08;;
51556;SDS011;38766;53.194;5.532;2023-05-20T10:47:22;6.82;;;2.20;;
51556;SDS011;38766;53.194;5.532;2023-05-20T10:49:48;3.42;;;2.08;;
51556;SDS011;38766;53.194;5.532;2023-05-20T10:52:17;5.57;;;2.20;;
51556;SDS011;38766;53.194;5.532;2023-05-20T10:55:02;8.00;;;2.10;;
51556;SDS011;38766;53.194;5.532;2023-05-20T10:59:55;5.82;;;2.50;;
51556;SDS011;38766;53.194;5.532;2023-05-20T11:02:20;5.63;;;2.03;;
51556;SDS011;38766;53.194;5.532;2023-05-20T11:04:54;7.82;;;2.58;;
51556;SDS011;38766;53.194;5.532;2023-05-20T11:07:28;11.68;;;2.55;;
51556;SDS011;38766;53.194;5.532;2023-05-20T11:09:55;6.55;;;2.30;;
51556;SDS011;38766;53.194;5.532;2023-05-20T11:12:22;8.85;;;2.65;;
51556;SDS011;38766;53.194;5.532;2023-05-20T11:14:49;6.82;;;2.45;;
51556;SDS011;38766;53.194;5.532;2023-05-20T11:17:15;7.45;;;2.65;;
51556;SDS011;38766;53.194;5.532;2023-05-20T11:19:41;5.47;;;2.50;;
51556;SDS011;38766;53.194;5.532;2023-05-20T11:22:07;7.38;;;2.63;;
51556;SDS011;38766;53.194;5.532;2023-05-20T11:24:33;6.80;;;2.85;;
51556;SDS011;38766;53.194;5.532;2023-05-20T11:26:59;6.00;;;2.83;;
51556;SDS011;38766;53.194;5.532;2023-05-20T11:29:26;7.78;;;2.47;;
51556;SDS011;38766;53.194;5.532;2023-05-20T11:31:53;7.43;;;2.67;;
51556;SDS011;38766;53.194;5.532;2023-05-20T11:34:22;8.90;;;2.55;;
51556;SDS011;38766;53.194;5.532;2023-05-20T11:36:54;7.43;;;3.03;;
51556;SDS011;38766;53.194;5.532;2023-05-20T11:39:20;5.90;;;2.97;;
51556;SDS011;38766;53.194;5.532;2023-05-20T11:41:46;8.20;;;2.60;;
51556;SDS011;38766;53.194;5.532;2023-05-20T11:44:12;5.15;;;2.58;;
51556;SDS011;38766;53.194;5.532;2023-05-20T11:46:41;7.72;;;3.00;;
51556;SDS011;38766;53.194;5.532;2023-05-20T11:49:08;5.13;;;2.22;;
51556;SDS011;38766;53.194;5.532;2023-05-20T11:51:34;5.32;;;2.40;;
51556;SDS011;38766;53.194;5.532;2023-05-20T11:54:04;6.20;;;2.42;;
51556;SDS011;38766;53.194;5.532;2023-05-20T11:56:35;9.63;;;2.90;;
51556;SDS011;38766;53.194;5.532;2023-05-20T11:59:02;7.10;;;2.30;;
51556;SDS011;38766;53.194;5.532;2023-05-20T12:01:30;7.55;;;2.67;;
51556;SDS011;38766;53.194;5.532;2023-05-20T12:03:58;6.32;;;2.63;;
51556;SDS011;38766;53.194;5.532;2023-05-20T12:06:24;5.95;;;2.08;;
51556;SDS011;38766;53.194;5.532;2023-05-20T12:08:49;7.53;;;2.20;;
51556;SDS011;38766;53.194;5.532;2023-05-20T12:11:15;6.47;;;2.70;;
51556;SDS011;38766;53.194;5.532;2023-05-20T12:13:41;8.82;;;2.60;;
51556;SDS011;38766;53.194;5.532;2023-05-20T12:16:06;4.65;;;2.45;;
51556;SDS011;38766;53.194;5.532;2023-05-20T12:18:32;7.47;;;2.60;;
51556;SDS011;38766;53.194;5.532;2023-05-20T12:20:59;8.88;;;2.83;;
51556;SDS011;38766;53.194;5.532;2023-05-20T12:23:25;7.78;;;2.75;;
51556;SDS011;38766;53.194;5.532;2023-05-20T12:25:51;9.10;;;2.55;;
51556;SDS011;38766;53.194;5.532;2023-05-20T12:28:16;5.75;;;2.47;;
51556;SDS011;38766;53.194;5.532;2023-05-20T12:30:42;8.38;;;2.97;;
51556;SDS011;38766;53.194;5.532;2023-05-20T12:33:08;7.05;;;2.40;;
51556;SDS011;38766;53.194;5.532;2023-05-20T12:35:40;10.07;;;2.47;;
51556;SDS011;38766;53.194;5.532;2023-05-20T12:38:06;9.20;;;2.85;;
51556;SDS011;38766;53.194;5.532;2023-05-20T12:40:33;9.38;;;2.53;;
51556;SDS011;38766;53.194;5.532;2023-05-20T12:42:59;11.18;;;2.70;;
51556;SDS011;38766;53.194;5.532;2023-05-20T12:45:26;8.93;;;3.40;;
51556;SDS011;38766;53.194;5.532;2023-05-20T12:47:53;9.68;;;2.67;;
51556;SDS011;38766;53.194;5.532;2023-05-20T12:50:19;6.95;;;3.30;;
51556;SDS011;38766;53.194;5.532;2023-05-20T12:52:44;6.50;;;2.28;;
51556;SDS011;38766;53.194;5.532;2023-05-20T12:55:10;8.85;;;3.15;;
51556;SDS011;38766;53.194;5.532;2023-05-20T12:57:38;11.13;;;2.83;;
51556;SDS011;38766;53.194;5.532;2023-05-20T13:00:08;9.65;;;3.17;;
51556;SDS011;38766;53.194;5.532;2023-05-20T13:02:35;6.97;;;2.50;;
51556;SDS011;38766;53.194;5.532;2023-05-20T13:05:01;8.25;;;3.00;;
51556;SDS011;38766;53.194;5.532;2023-05-20T13:07:27;6.15;;;2.40;;
51556;SDS011;38766;53.194;5.532;2023-05-20T13:09:52;8.65;;;2.60;;
51556;SDS011;38766;53.194;5.532;2023-05-20T13:12:18;8.23;;;2.58;;
51556;SDS011;38766;53.194;5.532;2023-05-20T13:14:44;10.60;;;3.08;;
51556;SDS011;38766;53.194;5.532;2023-05-20T13:17:10;6.30;;;2.40;;
51556;SDS011;38766;53.194;5.532;2023-05-20T13:19:36;11.65;;;2.80;;
51556;SDS011;38766;53.194;5.532;2023-05-20T13:22:02;6.05;;;2.50;;
51556;SDS011;38766;53.194;5.532;2023-05-20T13:24:29;9.52;;;3.33;;
51556;SDS011;38766;53.194;5.532;2023-05-20T13:26:55;6.07;;;2.63;;
51556;SDS011;38766;53.194;5.532;2023-05-20T13:29:21;6.60;;;2.33;;
51556;SDS011;38766;53.194;5.532;2023-05-20T13:31:47;4.93;;;2.40;;
51556;SDS011;38766;53.194;5.532;2023-05-20T13:34:13;7.55;;;2.65;;
51556;SDS011;38766;53.194;5.532;2023-05-20T13:36:38;6.85;;;2.70;;
51556;SDS011;38766;53.194;5.532;2023-05-20T13:39:04;7.50;;;2.65;;
51556;SDS011;38766;53.194;5.532;2023-05-20T13:41:30;3.38;;;2.30;;
51556;SDS011;38766;53.194;5.532;2023-05-20T13:43:56;8.07;;;2.70;;
51556;SDS011;38766;53.194;5.532;2023-05-20T13:46:22;8.95;;;2.45;;
51556;SDS011;38766;53.194;5.532;2023-05-20T13:48:48;6.18;;;2.65;;
51556;SDS011;38766;53.194;5.532;2023-05-20T13:51:14;7.57;;;3.10;;
51556;SDS011;38766;53.194;5.532;2023-05-20T13:53:40;9.15;;;3.00;;
51556;SDS011;38766;53.194;5.532;2023-05-20T13:56:06;9.02;;;2.75;;
51556;SDS011;38766;53.194;5.532;2023-05-20T13:58:33;8.05;;;2.47;;
51556;SDS011;38766;53.194;5.532;2023-05-20T14:01:03;6.78;;;2.65;;
51556;SDS011;38766;53.194;5.532;2023-05-20T14:03:29;8.27;;;2.67;;
51556;SDS011;38766;53.194;5.532;2023-05-20T14:05:57;12.05;;;3.15;;
51556;SDS011;38766;53.194;5.532;2023-05-20T14:08:23;6.78;;;2.60;;
51556;SDS011;38766;53.194;5.532;2023-05-20T14:10:49;4.47;;;2.42;;
51556;SDS011;38766;53.194;5.532;2023-05-20T14:13:18;9.82;;;2.75;;
51556;SDS011;38766;53.194;5.532;2023-05-20T14:15:45;3.65;;;2.28;;
51556;SDS011;38766;53.194;5.532;2023-05-20T14:18:11;8.07;;;3.38;;
51556;SDS011;38766;53.194;5.532;2023-05-20T14:20:36;9.13;;;2.65;;
51556;SDS011;38766;53.194;5.532;2023-05-20T14:23:02;6.53;;;2.67;;
51556;SDS011;38766;53.194;5.532;2023-05-20T14:25:28;9.65;;;2.75;;
51556;SDS011;38766;53.194;5.532;2023-05-20T14:27:53;6.55;;;2.35;;
51556;SDS011;38766;53.194;5.532;2023-05-20T14:30:19;7.72;;;2.33;;
51556;SDS011;38766;53.194;5.532;2023-05-20T14:32:45;7.88;;;2.50;;
51556;SDS011;38766;53.194;5.532;2023-05-20T14:35:10;7.03;;;2.85;;
51556;SDS011;38766;53.194;5.532;2023-05-20T14:37:36;10.45;;;2.97;;
51556;SDS011;38766;53.194;5.532;2023-05-20T14:40:03;6.95;;;2.67;;
51556;SDS011;38766;53.194;5.532;2023-05-20T14:42:31;6.65;;;2.95;;
51556;SDS011;38766;53.194;5.532;2023-05-20T14:44:57;6.85;;;2.60;;
51556;SDS011;38766;53.194;5.532;2023-05-20T14:47:23;5.22;;;2.47;;
51556;SDS011;38766;53.194;5.532;2023-05-20T14:49:50;5.45;;;2.63;;
51556;SDS011;38766;53.194;5.532;2023-05-20T14:52:15;8.65;;;2.67;;
51556;SDS011;38766;53.194;5.532;2023-05-20T14:54:43;7.60;;;3.22;;
51556;SDS011;38766;53.194;5.532;2023-05-20T14:57:09;5.72;;;2.55;;